Time;durP1;ratioP1;P1;durP2;ratioP2;P2;SDS_P1;SDS_P2;PMS_P1;PMS_P2;Temp;Humidity;BMP_temperature;BMP_pressure;BME280_temperature;BME280_humidity;BME280_pressure;Samples;Min_cycle;Max_cycle;Signal;HPM_P1;HPM_P2
2022/12/30 00:00:33;;;;;;;;;;;;;;;4.99;74.46;97852.94;4955312;28;2458;-83
2022/12/30 00:02:59;;;;;;;;;;;;;;;4.95;74.63;97844.63;4935667;28;2446;-83
2022/12/30 00:05:26;;;;;;;;;;;;;;;4.97;74.40;97861.19;4953055;28;2436;-82
2022/12/30 00:07:53;;;;;;;;;;;;;;;4.94;74.59;97861.69;4935994;28;2532;-82
2022/12/30 00:10:19;;;;;;;;;;;;;;;4.87;74.94;97873.59;4939399;28;2502;-82
2022/12/30 00:34:41;;;;;;;;;;;;;;;4.92;74.57;97895.00;4936977;28;2767;-82
2022/12/30 00:37:07;;;;;;;;;;;;;;;4.89;74.89;97901.63;4969952;28;2530;-83
2022/12/30 00:39:34;;;;;;;;;;;;;;;4.86;74.78;97901.31;4962519;28;2356;-82
2022/12/30 00:44:45;;;;;;;;;;;;;;;4.88;74.62;97908.03;4938618;28;2401;-82
2022/12/30 00:47:12;;;;;;;;;;;;;;;4.85;74.83;97907.69;4938865;28;2373;-83
2022/12/30 00:57:52;;;;;;;;;;;;;;;4.77;75.14;97922.28;4962455;28;2375;-82
2022/12/30 01:00:18;;;;;;;;;;;;;;;4.86;74.94;97922.66;4957520;28;4153;-82
2022/12/30 01:02:45;;;;;;;;;;;;;;;4.78;75.06;97927.34;4938191;28;2892;-81
2022/12/30 01:05:11;;;;;;;;;;;;;;;4.79;75.13;97933.47;4957010;28;2864;-83
2022/12/30 01:07:38;;;;;;;;;;;;;;;4.76;75.16;97940.13;4957711;28;2883;-81
2022/12/30 01:10:05;;;;;;;;;;;;;;;4.76;75.26;97939.31;4947907;28;2318;-82
2022/12/30 01:12:31;;;;;;;;;;;;;;;4.75;75.23;97935.84;4959692;28;2393;-83
2022/12/30 01:14:58;;;;;;;;;;;;;;;4.76;75.07;97942.81;4965207;28;2390;-81
2022/12/30 01:17:25;;;;;;;;;;;;;;;4.75;75.29;97946.50;4939802;28;2765;-82
2022/12/30 01:19:52;;;;;;;;;;;;;;;4.74;75.22;97944.09;4952026;28;2403;-82
2022/12/30 01:22:18;;;;;;;;;;;;;;;4.73;75.34;97942.47;4951851;29;1186;-82
2022/12/30 01:24:45;;;;;;;;;;;;;;;4.72;75.22;97948.88;4943697;28;2454;-83
2022/12/30 01:27:11;;;;;;;;;;;;;;;4.70;75.26;97946.41;4960348;28;1469;-82
2022/12/30 01:29:38;;;;;;;;;;;;;;;4.75;75.20;97945.69;4971910;28;2412;-82
2022/12/30 01:32:04;;;;;;;;;;;;;;;4.75;75.36;97945.69;4951662;28;2291;-82
2022/12/30 01:34:31;;;;;;;;;;;;;;;4.72;75.26;97948.88;4957692;28;2685;-82
2022/12/30 01:36:57;;;;;;;;;;;;;;;4.74;75.27;97954.75;4940425;28;2597;-83
2022/12/30 01:39:24;;;;;;;;;;;;;;;4.72;75.26;97949.66;4952631;28;2503;-82
2022/12/30 01:41:51;;;;;;;;;;;;;;;4.72;75.33;97960.31;4956922;28;2352;-81
2022/12/30 01:44:17;;;;;;;;;;;;;;;4.73;75.17;97961.13;4957391;28;2577;-81
2022/12/30 01:46:44;;;;;;;;;;;;;;;4.72;75.26;97957.66;4957704;28;2386;-84
2022/12/30 01:49:10;;;;;;;;;;;;;;;4.71;75.47;97963.25;4946746;28;2415;-81
2022/12/30 01:51:37;;;;;;;;;;;;;;;4.71;75.21;97961.38;4953438;28;2328;-83
2022/12/30 01:54:03;;;;;;;;;;;;;;;4.74;75.16;97965.44;4945052;28;2803;-82
2022/12/30 01:56:30;;;;;;;;;;;;;;;4.71;75.18;97969.38;4952983;28;2308;-81
2022/12/30 01:58:57;;;;;;;;;;;;;;;4.71;75.34;97969.38;4956988;28;2375;-82
2022/12/30 02:01:23;;;;;;;;;;;;;;;4.70;75.36;97977.63;4958857;28;2498;-82
2022/12/30 02:03:50;;;;;;;;;;;;;;;4.70;75.41;97981.09;4936804;28;2417;-82
2022/12/30 02:06:16;;;;;;;;;;;;;;;4.70;75.47;97980.28;4956564;28;2447;-81
2022/12/30 02:08:43;;;;;;;;;;;;;;;4.71;75.16;97984.59;4957337;28;2719;-82
2022/12/30 02:11:10;;;;;;;;;;;;;;;4.69;75.37;97992.00;4957463;28;2483;-82
2022/12/30 02:13:36;;;;;;;;;;;;;;;4.68;75.34;97993.06;4957833;28;2688;-82
2022/12/30 02:16:03;;;;;;;;;;;;;;;4.68;75.36;97995.75;4960279;28;2736;-82
2022/12/30 02:18:29;;;;;;;;;;;;;;;4.68;75.66;98009.06;4956374;28;2636;-82
2022/12/30 02:20:56;;;;;;;;;;;;;;;4.69;75.45;98006.16;4958125;28;2405;-82
2022/12/30 02:23:22;;;;;;;;;;;;;;;4.70;75.32;98006.94;4951769;28;2408;-82
2022/12/30 02:25:49;;;;;;;;;;;;;;;4.68;75.17;98009.06;4956321;28;2351;-82
2022/12/30 02:28:15;;;;;;;;;;;;;;;4.69;75.39;98010.69;4956375;28;2450;-81
2022/12/30 02:30:42;;;;;;;;;;;;;;;4.75;75.05;98015.03;4952720;28;2373;-81
2022/12/30 02:33:08;;;;;;;;;;;;;;;4.78;75.00;98019.88;4952245;28;2578;-81
2022/12/30 02:35:35;;;;;;;;;;;;;;;4.77;75.02;98016.41;4955715;28;2503;-81
2022/12/30 02:38:01;;;;;;;;;;;;;;;4.75;75.03;98015.03;4936049;28;2723;-81
2022/12/30 02:40:28;;;;;;;;;;;;;;;4.71;75.05;98012.06;4950922;28;2462;-83
2022/12/30 02:45:58;;;;;;;;;;;;;;;4.80;74.96;98014.31;4937204;28;2386;-82
2022/12/30 02:48:25;;;;;;;;;;;;;;;4.78;74.90;98014.53;4959023;28;2706;-82
2022/12/30 02:53:36;;;;;;;;;;;;;;;4.76;75.17;98024.63;4942344;28;2958;-82
2022/12/30 02:56:02;;;;;;;;;;;;;;;4.80;75.06;98028.44;4943159;28;2896;-81
2022/12/30 02:58:29;;;;;;;;;;;;;;;4.76;75.17;98038.81;4955044;28;2942;-82
2022/12/30 03:03:58;;;;;;;;;;;;;;;4.75;75.01;98049.69;4961397;28;2776;-82
2022/12/30 03:06:24;;;;;;;;;;;;;;;4.73;75.28;98049.13;4952880;28;2755;-82
2022/12/30 03:08:51;;;;;;;;;;;;;;;4.74;74.93;98048.91;4942830;28;2369;-82
2022/12/30 03:11:17;;;;;;;;;;;;;;;4.79;74.97;98056.16;4943163;28;2734;-82
2022/12/30 03:13:43;;;;;;;;;;;;;;;4.79;75.00;98064.16;4958418;28;2376;-82
2022/12/30 03:16:10;;;;;;;;;;;;;;;4.82;74.76;98060.19;4936108;28;2485;-82
2022/12/30 03:18:36;;;;;;;;;;;;;;;4.83;74.76;98059.97;4957829;28;2363;-83
2022/12/30 03:21:03;;;;;;;;;;;;;;;4.86;74.55;98061.34;4954851;28;2375;-82
2022/12/30 03:28:57;;;;;;;;;;;;;;;4.72;75.28;98067.00;4954382;28;2715;-81
2022/12/30 03:31:24;;;;;;;;;;;;;;;4.71;75.14;98064.59;4949960;28;3853;-82
2022/12/30 03:33:51;;;;;;;;;;;;;;;4.70;75.33;98066.41;4958436;28;2540;-82
2022/12/30 03:36:17;;;;;;;;;;;;;;;4.75;75.10;98066.50;4943106;28;3878;-81
2022/12/30 03:38:44;;;;;;;;;;;;;;;4.73;75.04;98075.78;4951720;28;2488;-81
2022/12/30 03:41:10;;;;;;;;;;;;;;;4.72;75.30;98071.53;4950690;28;2427;-81
2022/12/30 03:43:37;;;;;;;;;;;;;;;4.71;75.29;98078.72;4955791;28;2447;-81
2022/12/30 03:46:04;;;;;;;;;;;;;;;4.74;75.15;98070.22;4933399;28;2338;-83
2022/12/30 03:48:30;;;;;;;;;;;;;;;4.72;75.20;98072.31;4943490;28;4043;-82
2022/12/30 03:50:57;;;;;;;;;;;;;;;4.73;75.23;98075.78;4953501;28;2335;-83
2022/12/30 03:53:23;;;;;;;;;;;;;;;4.71;75.26;98083.25;4955438;28;2506;-81
2022/12/30 03:55:50;;;;;;;;;;;;;;;4.70;75.24;98081.59;4950618;28;2371;-82
2022/12/30 03:58:17;;;;;;;;;;;;;;;4.73;75.11;98076.59;4953918;28;2419;-81
2022/12/30 04:00:43;;;;;;;;;;;;;;;4.73;75.00;98087.25;4942302;28;2402;-82
2022/12/30 04:03:10;;;;;;;;;;;;;;;4.80;74.90;98094.31;4957481;28;2925;-81
2022/12/30 04:05:36;;;;;;;;;;;;;;;4.75;74.87;98098.50;4955130;28;2828;-81
2022/12/30 04:08:03;;;;;;;;;;;;;;;4.75;74.81;98095.03;4956809;28;2406;-81
2022/12/30 04:10:29;;;;;;;;;;;;;;;4.73;75.02;98105.13;4938251;28;2365;-82
2022/12/30 04:12:56;;;;;;;;;;;;;;;4.75;75.00;98106.50;4953771;28;2912;-81
2022/12/30 04:15:22;;;;;;;;;;;;;;;4.70;75.09;98111.75;4939682;28;2528;-82
2022/12/30 04:17:49;;;;;;;;;;;;;;;4.74;75.03;98118.22;4956424;28;2456;-82
2022/12/30 04:20:17;;;;;;;;;;;;;;;4.70;75.14;98132.28;4933696;28;2411;-83
2022/12/30 04:22:43;;;;;;;;;;;;;;;4.75;74.92;98135.03;4950154;28;2335;-82
2022/12/30 04:25:10;;;;;;;;;;;;;;;4.75;74.92;98138.50;4952474;28;2846;-82
2022/12/30 04:27:37;;;;;;;;;;;;;;;4.74;74.92;98139.56;4945681;28;2604;-83
2022/12/30 04:30:03;;;;;;;;;;;;;;;4.73;75.03;98145.13;4968965;28;2404;-82
2022/12/30 04:32:31;;;;;;;;;;;;;;;4.71;75.16;98152.56;4978965;28;2437;-82
2022/12/30 04:34:57;;;;;;;;;;;;;;;4.69;75.29;98157.31;4963563;28;2334;-82
2022/12/30 04:37:24;;;;;;;;;;;;;;;4.68;75.18;98163.72;4955894;28;2295;-82
2022/12/30 04:39:50;;;;;;;;;;;;;;;4.70;75.19;98177.59;4964746;28;2349;-82
2022/12/30 04:42:17;;;;;;;;;;;;;;;4.71;75.20;98176.56;4966643;28;2020;-82
2022/12/30 04:44:44;;;;;;;;;;;;;;;4.69;75.13;98176.78;4960715;28;2259;-83
2022/12/30 04:47:10;;;;;;;;;;;;;;;4.71;75.09;98179.25;4965776;28;2199;-82
2022/12/30 04:49:37;;;;;;;;;;;;;;;4.69;75.19;98178.66;4968189;28;2540;-82
2022/12/30 04:52:03;;;;;;;;;;;;;;;4.66;75.22;98179.94;4963294;28;2384;-82
2022/12/30 04:54:30;;;;;;;;;;;;;;;4.66;75.28;98176.47;4963758;28;2404;-82
2022/12/30 04:56:57;;;;;;;;;;;;;;;4.65;75.23;98170.34;4968275;28;2370;-82
2022/12/30 04:59:23;;;;;;;;;;;;;;;4.66;75.26;98171.94;4966344;28;2388;-82
2022/12/30 05:01:50;;;;;;;;;;;;;;;4.65;75.37;98172.19;4966032;28;2543;-82
2022/12/30 05:04:16;;;;;;;;;;;;;;;4.66;75.09;98171.94;4969483;28;1027;-82
2022/12/30 05:06:43;;;;;;;;;;;;;;;4.65;75.23;98180.19;4964141;28;1123;-82
2022/12/30 05:09:09;;;;;;;;;;;;;;;4.64;75.27;98171.38;4966716;28;1424;-82
2022/12/30 05:11:36;;;;;;;;;;;;;;;4.65;75.42;98166.88;4967944;28;1252;-82
2022/12/30 05:14:02;;;;;;;;;;;;;;;4.66;75.09;98174.63;4948415;28;2219;-82
2022/12/30 05:16:29;;;;;;;;;;;;;;;4.67;75.08;98175.41;4967851;28;1926;-82
2022/12/30 05:18:55;;;;;;;;;;;;;;;4.65;75.25;98181.00;4962475;28;2357;-82
2022/12/30 05:21:22;;;;;;;;;;;;;;;4.71;75.25;98179.25;4955018;28;2370;-82
2022/12/30 05:26:32;;;;;;;;;;;;;;;4.71;75.22;98200.56;4944619;28;2398;-83
2022/12/30 05:28:59;;;;;;;;;;;;;;;4.69;75.17;98197.31;4965455;28;2519;-81
2022/12/30 05:31:26;;;;;;;;;;;;;;;4.68;75.28;98209.84;4963721;28;2435;-82
2022/12/30 05:33:52;;;;;;;;;;;;;;;4.68;75.18;98215.19;4960331;28;2355;-82
2022/12/30 05:36:19;;;;;;;;;;;;;;;4.72;74.83;98226.19;4953307;28;2334;-82
2022/12/30 05:38:45;;;;;;;;;;;;;;;4.75;74.98;98234.50;4957146;28;2741;-82
2022/12/30 05:41:12;;;;;;;;;;;;;;;4.77;74.90;98243.09;4950555;28;2503;-83
2022/12/30 05:43:39;;;;;;;;;;;;;;;4.77;74.84;98231.63;4962107;28;2337;-83
2022/12/30 05:46:05;;;;;;;;;;;;;;;4.71;74.96;98236.03;4965177;28;2288;-82
2022/12/30 05:48:32;;;;;;;;;;;;;;;4.76;74.79;98238.81;4972435;28;2057;-83
2022/12/30 05:50:58;;;;;;;;;;;;;;;4.77;74.79;98243.09;4961695;28;2435;-82
2022/12/30 05:53:25;;;;;;;;;;;;;;;4.80;74.56;98239.13;4953544;28;2268;-83
2022/12/30 05:55:52;;;;;;;;;;;;;;;4.78;74.74;98249.22;4947213;28;2414;-82
2022/12/30 05:58:19;;;;;;;;;;;;;;;4.78;74.56;98258.03;4969180;28;2426;-82
2022/12/30 06:00:46;;;;;;;;;;;;;;;4.82;74.58;98260.22;4944312;28;3954;-83
2022/12/30 06:03:12;;;;;;;;;;;;;;;4.80;74.71;98259.66;4968641;28;2368;-82
2022/12/30 06:05:39;;;;;;;;;;;;;;;4.76;74.77;98259.31;4949899;28;2440;-83
2022/12/30 06:08:05;;;;;;;;;;;;;;;4.75;74.84;98271.84;4942140;28;2732;-82
2022/12/30 06:10:32;;;;;;;;;;;;;;;4.79;74.66;98277.50;4949305;28;2360;-83
2022/12/30 06:12:58;;;;;;;;;;;;;;;4.78;74.72;98282.03;4950889;29;2197;-82
2022/12/30 06:15:25;;;;;;;;;;;;;;;4.77;74.84;98285.75;4963810;28;2301;-83
2022/12/30 06:17:51;;;;;;;;;;;;;;;4.77;74.84;98284.94;4957483;28;2238;-83
2022/12/30 06:20:18;;;;;;;;;;;;;;;4.79;74.72;98293.50;4949994;28;2289;-83
2022/12/30 06:22:44;;;;;;;;;;;;;;;4.77;74.68;98290.28;4959558;28;2405;-83
2022/12/30 06:25:11;;;;;;;;;;;;;;;4.78;74.60;98292.69;4956869;28;2280;-83
2022/12/30 06:27:37;;;;;;;;;;;;;;;4.79;74.66;98298.84;4966023;28;2215;-83
2022/12/30 06:30:04;;;;;;;;;;;;;;;4.74;74.79;98304.09;4946594;29;1814;-84
2022/12/30 06:32:31;;;;;;;;;;;;;;;4.75;74.80;98311.03;4971065;28;1911;-83
2022/12/30 06:34:58;;;;;;;;;;;;;;;4.74;74.80;98330.75;4960603;28;2164;-84
2022/12/30 06:37:24;;;;;;;;;;;;;;;4.74;74.97;98336.91;4933246;29;2360;-83
2022/12/30 06:39:51;;;;;;;;;;;;;;;4.76;74.86;98349.97;4957158;28;2416;-83
2022/12/30 06:42:17;;;;;;;;;;;;;;;4.72;74.93;98357.66;4937752;29;2511;-83
2022/12/30 06:44:44;;;;;;;;;;;;;;;4.72;74.81;98373.66;4940775;28;2473;-84
2022/12/30 06:47:11;;;;;;;;;;;;;;;4.70;75.09;98365.06;4931744;28;2373;-83
2022/12/30 06:49:38;;;;;;;;;;;;;;;4.74;74.88;98368.91;4933371;28;2267;-82
2022/12/30 06:52:04;;;;;;;;;;;;;;;4.74;74.77;98362.75;4935862;28;2381;-82
2022/12/30 06:54:31;;;;;;;;;;;;;;;4.76;75.00;98379.31;4939437;28;2376;-83
2022/12/30 06:56:57;;;;;;;;;;;;;;;4.73;75.03;98379.78;4933574;29;2289;-83
2022/12/30 06:59:24;;;;;;;;;;;;;;;4.71;74.95;98374.72;4945141;28;2306;-84
2022/12/30 07:01:50;;;;;;;;;;;;;;;4.70;75.01;98372.25;4935128;28;2395;-84
2022/12/30 07:04:17;;;;;;;;;;;;;;;4.65;75.05;98378.31;4932665;28;2941;-84
2022/12/30 07:06:43;;;;;;;;;;;;;;;4.70;75.04;98390.94;4935381;28;2388;-84
2022/12/30 07:09:10;;;;;;;;;;;;;;;4.73;74.78;98399.25;4938072;29;2324;-84
2022/12/30 07:11:36;;;;;;;;;;;;;;;4.67;75.02;98424.19;4934991;28;3275;-84
2022/12/30 07:14:03;;;;;;;;;;;;;;;4.70;75.05;98431.72;4948489;28;2879;-83
2022/12/30 07:16:29;;;;;;;;;;;;;;;4.70;74.79;98439.72;4932363;28;2516;-84
2022/12/30 07:18:56;;;;;;;;;;;;;;;4.70;75.05;98444.25;4935634;28;2235;-83
2022/12/30 07:21:26;;;;;;;;;;;;;;;4.69;74.95;98439.97;4947350;28;2434;-83
2022/12/30 07:23:52;;;;;;;;;;;;;;;4.69;74.83;98446.13;4935440;28;2346;-84
2022/12/30 07:26:19;;;;;;;;;;;;;;;4.65;74.99;98449.50;4931352;28;2512;-83
2022/12/30 07:28:45;;;;;;;;;;;;;;;4.64;75.03;98455.84;4947576;28;2344;-84
2022/12/30 07:31:12;;;;;;;;;;;;;;;4.62;75.36;98450.78;4931177;28;2293;-83
2022/12/30 07:33:39;;;;;;;;;;;;;;;4.63;75.19;98457.72;4932878;28;2436;-83
2022/12/30 07:36:05;;;;;;;;;;;;;;;4.63;75.24;98455.06;4936193;28;2333;-83
2022/12/30 07:38:32;;;;;;;;;;;;;;;4.62;75.23;98455.28;4932701;28;2536;-85
2022/12/30 07:40:58;;;;;;;;;;;;;;;4.62;75.25;98463.25;4934639;28;2351;-83
2022/12/30 07:43:25;;;;;;;;;;;;;;;4.61;75.08;98469.66;4933043;28;2402;-84
2022/12/30 07:45:52;;;;;;;;;;;;;;;4.64;75.00;98474.53;4932200;28;2252;-84
2022/12/30 07:48:18;;;;;;;;;;;;;;;4.61;75.08;98473.13;4939723;28;2496;-84
2022/12/30 07:50:45;;;;;;;;;;;;;;;4.58;75.26;98465.59;4935738;28;2401;-83
2022/12/30 07:53:12;;;;;;;;;;;;;;;4.61;75.24;98464.31;4949045;28;2811;-83
2022/12/30 07:55:39;;;;;;;;;;;;;;;4.61;75.08;98472.31;4940564;28;2729;-83
2022/12/30 07:58:05;;;;;;;;;;;;;;;4.56;75.17;98473.03;4956605;28;2321;-82
2022/12/30 08:00:32;;;;;;;;;;;;;;;4.54;75.29;98478.56;4937545;28;2403;-84
2022/12/30 08:02:58;;;;;;;;;;;;;;;4.56;75.10;98473.03;4932423;28;2284;-84
2022/12/30 08:05:25;;;;;;;;;;;;;;;4.59;75.04;98459.25;4930707;28;2536;-83
2022/12/30 08:07:51;;;;;;;;;;;;;;;4.53;75.52;98460.97;4946729;28;2339;-84
2022/12/30 08:10:19;;;;;;;;;;;;;;;4.53;75.40;98450.31;4938364;28;2487;-84
2022/12/30 08:12:46;;;;;;;;;;;;;;;4.53;75.23;98460.16;4934031;28;2518;-84
2022/12/30 08:15:12;;;;;;;;;;;;;;;4.52;75.36;98466.53;4936547;28;2391;-84
2022/12/30 08:17:39;;;;;;;;;;;;;;;4.53;75.34;98458.31;4936011;28;2632;-84
2022/12/30 08:20:09;;;;;;;;;;;;;;;4.55;75.22;98476.72;4944213;28;2574;-84
2022/12/30 08:22:35;;;;;;;;;;;;;;;4.58;74.99;98486.13;4937548;28;2432;-84
2022/12/30 08:25:02;;;;;;;;;;;;;;;4.60;74.96;98508.03;4938075;28;2961;-84
2022/12/30 08:27:28;;;;;;;;;;;;;;;4.57;75.20;98516.50;4956942;28;2562;-84
2022/12/30 08:29:55;;;;;;;;;;;;;;;4.55;75.26;98538.84;4936685;28;4070;-85
2022/12/30 08:32:21;;;;;;;;;;;;;;;4.57;75.12;98554.63;4945875;28;3931;-84
2022/12/30 08:34:48;;;;;;;;;;;;;;;4.57;75.17;98567.16;4958441;28;2367;-85
2022/12/30 08:37:14;;;;;;;;;;;;;;;4.59;74.92;98576.56;4939207;28;2692;-84
2022/12/30 08:39:44;;;;;;;;;;;;;;;4.64;74.86;98590.00;4958324;28;2553;-84
2022/12/30 08:42:10;;;;;;;;;;;;;;;4.66;74.99;98617.25;4946545;28;2369;-85
2022/12/30 08:44:37;;;;;;;;;;;;;;;4.68;74.74;98633.84;4965200;28;2424;-85
2022/12/30 08:47:03;;;;;;;;;;;;;;;4.63;74.85;98640.91;4965618;28;2394;-84
2022/12/30 08:49:30;;;;;;;;;;;;;;;4.62;74.86;98636.59;4966796;28;2554;-85
2022/12/30 08:51:57;;;;;;;;;;;;;;;4.61;74.90;98645.63;4965924;28;2403;-85
2022/12/30 08:54:23;;;;;;;;;;;;;;;4.59;74.54;98639.72;4957493;28;2222;-85
2022/12/30 08:56:50;;;;;;;;;;;;;;;4.67;74.80;98642.06;4952692;28;2322;-85
2022/12/30 08:59:16;;;;;;;;;;;;;;;4.67;74.60;98644.72;4951346;28;2137;-85
2022/12/30 09:01:43;;;;;;;;;;;;;;;4.73;74.45;98641.94;4948963;28;2289;-84
2022/12/30 09:04:09;;;;;;;;;;;;;;;4.67;74.62;98626.88;4972622;28;2276;-85
2022/12/30 09:06:36;;;;;;;;;;;;;;;4.64;74.69;98629.97;4975625;28;1424;-85
2022/12/30 09:09:02;;;;;;;;;;;;;;;4.66;74.55;98630.59;4963641;28;2202;-84
2022/12/30 09:11:30;;;;;;;;;;;;;;;4.69;74.63;98629.31;4946709;28;2411;-85
2022/12/30 09:13:56;;;;;;;;;;;;;;;4.63;74.64;98625.69;4966879;28;2247;-84
2022/12/30 09:16:23;;;;;;;;;;;;;;;4.69;74.72;98637.31;4963377;28;2276;-85
2022/12/30 09:18:49;;;;;;;;;;;;;;;4.70;74.67;98645.06;4954785;28;2187;-85
2022/12/30 09:21:16;;;;;;;;;;;;;;;4.67;74.48;98652.72;4964853;28;2282;-84
2022/12/30 09:23:43;;;;;;;;;;;;;;;3.78;76.28;98655.09;4940182;28;2298;-86
2022/12/30 09:26:09;;;;;;;;;;;;;;;4.53;74.40;98668.91;4957956;28;2301;-88
2022/12/30 09:28:36;;;;;;;;;;;;;;;4.46;74.64;98662.84;4944773;28;2348;-88
2022/12/30 09:31:03;;;;;;;;;;;;;;;4.47;74.59;98677.00;4954267;28;2299;-88
2022/12/30 09:33:29;;;;;;;;;;;;;;;4.51;74.43;98676.31;4941222;28;2340;-89
2022/12/30 09:35:56;;;;;;;;;;;;;;;4.53;74.54;98678.78;4949322;28;2282;-87
2022/12/30 09:38:23;;;;;;;;;;;;;;;4.54;74.81;98675.88;4961200;28;2267;-89
2022/12/30 09:40:49;;;;;;;;;;;;;;;4.59;74.45;98675.22;4951687;28;2352;-89
2022/12/30 09:43:15;;;;;;;;;;;;;;;4.64;74.29;98675.31;4947966;28;2276;-89
2022/12/30 09:45:41;;;;;;;;;;;;;;;4.64;74.37;98695.84;4948216;28;2251;-88
2022/12/30 09:48:08;;;;;;;;;;;;;;;4.65;74.48;98692.16;4945505;28;2185;-88
2022/12/30 09:50:35;;;;;;;;;;;;;;;4.62;74.43;98687.25;4949771;28;2163;-88
2022/12/30 09:53:01;;;;;;;;;;;;;;;4.59;74.55;98699.19;4965070;28;2160;-88
2022/12/30 09:55:28;;;;;;;;;;;;;;;4.59;74.35;98691.22;4964792;28;2235;-88
2022/12/30 09:57:54;;;;;;;;;;;;;;;4.58;74.63;98708.22;4949840;28;2279;-88
2022/12/30 10:00:21;;;;;;;;;;;;;;;4.62;74.47;98714.75;4947386;28;2514;-88
2022/12/30 10:02:47;;;;;;;;;;;;;;;4.59;74.85;98715.19;4967371;28;2203;-87
2022/12/30 10:05:14;;;;;;;;;;;;;;;4.62;74.56;98724.56;4953162;28;1584;-87
2022/12/30 10:07:40;;;;;;;;;;;;;;;4.59;74.52;98731.19;4951527;28;2257;-88
2022/12/30 10:10:07;;;;;;;;;;;;;;;4.58;74.48;98734.88;4962576;28;2747;-89
2022/12/30 10:12:33;;;;;;;;;;;;;;;4.58;74.63;98750.88;4967141;28;2108;-88
2022/12/30 10:15:00;;;;;;;;;;;;;;;4.53;74.77;98742.78;4969670;28;2250;-88
2022/12/30 10:17:27;;;;;;;;;;;;;;;4.55;74.96;98751.34;4967518;28;2452;-88
2022/12/30 10:19:53;;;;;;;;;;;;;;;4.53;74.83;98748.91;4953376;28;2633;-88
2022/12/30 10:22:20;;;;;;;;;;;;;;;4.54;74.96;98749.72;4959595;28;1207;-88
2022/12/30 10:24:47;;;;;;;;;;;;;;;4.55;74.69;98741.47;4953785;28;2363;-88
2022/12/30 10:27:14;;;;;;;;;;;;;;;4.54;75.01;98745.19;4964948;28;2281;-88
2022/12/30 10:29:40;;;;;;;;;;;;;;;4.51;74.97;98745.66;4959980;28;1241;-88
2022/12/30 10:32:07;;;;;;;;;;;;;;;4.54;74.86;98747.06;4949980;28;2828;-88
2022/12/30 10:34:33;;;;;;;;;;;;;;;4.52;74.87;98749.94;4949371;28;2271;-86
2022/12/30 10:37:00;;;;;;;;;;;;;;;4.51;75.06;98761.63;4962008;28;2265;-86
2022/12/30 10:39:27;;;;;;;;;;;;;;;4.53;74.92;98764.09;4954250;28;2115;-86
2022/12/30 10:41:54;;;;;;;;;;;;;;;4.53;75.06;98770.25;4945547;28;1352;-87
2022/12/30 10:44:20;;;;;;;;;;;;;;;4.52;75.04;98773.91;4958770;28;2242;-88
2022/12/30 10:46:47;;;;;;;;;;;;;;;4.54;75.04;98769.19;4945060;28;2378;-86
2022/12/30 10:49:13;;;;;;;;;;;;;;;4.54;75.10;98782.53;4944546;28;2379;-86
2022/12/30 10:51:40;;;;;;;;;;;;;;;4.54;74.75;98777.19;4957859;28;2231;-85
2022/12/30 10:54:06;;;;;;;;;;;;;;;4.58;74.86;98774.06;4946361;28;2311;-87
2022/12/30 10:56:33;;;;;;;;;;;;;;;4.53;74.90;98770.25;4948546;28;2462;-88
2022/12/30 10:58:59;;;;;;;;;;;;;;;4.58;75.03;98771.41;4952764;28;4010;-88
2022/12/30 11:01:26;;;;;;;;;;;;;;;4.55;74.92;98770.81;4942649;28;2245;-88
2022/12/30 11:03:52;;;;;;;;;;;;;;;4.57;74.95;98778.59;4942395;29;2329;-87
2022/12/30 11:06:19;;;;;;;;;;;;;;;4.58;74.89;98796.22;4952825;28;2245;-86
2022/12/30 11:08:46;;;;;;;;;;;;;;;4.60;74.90;98806.66;4942504;28;2429;-86
2022/12/30 11:11:12;;;;;;;;;;;;;;;4.62;75.16;98807.25;4938223;29;2411;-88
2022/12/30 11:16:23;;;;;;;;;;;;;;;4.56;74.92;98800.97;4942962;28;2362;-87
2022/12/30 11:18:50;;;;;;;;;;;;;;;4.57;75.07;98801.78;4942823;28;2521;-86
2022/12/30 11:21:16;;;;;;;;;;;;;;;4.59;75.05;98811.19;4946234;29;2399;-87
2022/12/30 11:23:43;;;;;;;;;;;;;;;4.61;74.89;98816.28;4943494;28;2399;-88
2022/12/30 11:26:10;;;;;;;;;;;;;;;4.60;75.00;98812.00;4942139;28;2337;-87
2022/12/30 11:28:36;;;;;;;;;;;;;;;4.61;74.99;98809.09;4940316;29;2472;-88
2022/12/30 11:31:03;;;;;;;;;;;;;;;4.60;74.96;98804.00;4943906;29;2483;-87
2022/12/30 11:33:30;;;;;;;;;;;;;;;4.58;74.96;98806.06;4939079;28;2426;-87
2022/12/30 11:35:57;;;;;;;;;;;;;;;4.59;74.97;98807.69;4955058;28;2349;-87
2022/12/30 11:38:23;;;;;;;;;;;;;;;4.58;75.07;98814.88;4939875;29;2368;-87
2022/12/30 11:40:50;;;;;;;;;;;;;;;4.56;75.14;98816.97;4954530;28;2294;-87
2022/12/30 11:43:16;;;;;;;;;;;;;;;4.57;75.10;98812.44;4943430;28;2303;-87
2022/12/30 11:45:43;;;;;;;;;;;;;;;4.58;75.03;98801.53;4941671;28;2286;-88
2022/12/30 11:48:10;;;;;;;;;;;;;;;4.61;74.86;98797.63;4940242;28;2322;-88
2022/12/30 11:50:36;;;;;;;;;;;;;;;4.61;75.08;98803.75;4940170;29;2453;-87
2022/12/30 11:53:03;;;;;;;;;;;;;;;4.59;75.09;98803.19;4958523;28;2240;-88
2022/12/30 11:55:29;;;;;;;;;;;;;;;4.58;75.04;98803.41;4947820;28;2278;-87
2022/12/30 11:57:56;;;;;;;;;;;;;;;4.59;75.07;98807.69;4947523;29;2776;-87
2022/12/30 12:00:23;;;;;;;;;;;;;;;4.61;74.96;98805.63;4951478;29;2177;-87
2022/12/30 12:02:49;;;;;;;;;;;;;;;4.59;74.96;98802.34;4960386;28;2304;-88
2022/12/30 12:05:16;;;;;;;;;;;;;;;4.60;75.01;98796.00;4952108;29;2297;-88
2022/12/30 12:07:42;;;;;;;;;;;;;;;4.59;75.14;98794.34;4949372;28;2290;-85
2022/12/30 12:10:09;;;;;;;;;;;;;;;4.61;75.06;98797.63;4964892;28;1185;-85
2022/12/30 12:12:36;;;;;;;;;;;;;;;4.59;75.18;98795.19;4959390;28;1001;-85
2022/12/30 12:15:02;;;;;;;;;;;;;;;4.62;75.01;98796.56;4948163;28;2321;-85
2022/12/30 12:17:29;;;;;;;;;;;;;;;4.58;75.24;98792.75;4948840;29;2340;-85
2022/12/30 12:19:55;;;;;;;;;;;;;;;4.58;75.19;98790.06;4963670;28;2228;-85
2022/12/30 12:22:22;;;;;;;;;;;;;;;4.56;75.21;98792.97;4947157;28;2348;-85
2022/12/30 12:24:48;;;;;;;;;;;;;;;4.59;75.26;98789.03;4974294;28;2249;-85
2022/12/30 12:27:16;;;;;;;;;;;;;;;4.62;75.03;98805.41;4973194;28;2257;-85
2022/12/30 12:29:43;;;;;;;;;;;;;;;4.60;74.91;98812.00;4968275;28;2471;-86
2022/12/30 12:32:09;;;;;;;;;;;;;;;4.58;75.19;98806.88;4971822;28;2327;-85
2022/12/30 12:34:36;;;;;;;;;;;;;;;4.61;74.89;98808.28;4969685;28;1857;-86
2022/12/30 12:37:02;;;;;;;;;;;;;;;4.62;74.84;98810.75;4970655;28;2613;-86
2022/12/30 12:39:30;;;;;;;;;;;;;;;4.62;75.06;98812.56;4967547;28;2095;-85
2022/12/30 12:41:56;;;;;;;;;;;;;;;4.61;74.96;98806.44;4970525;28;2347;-87
2022/12/30 12:44:23;;;;;;;;;;;;;;;4.57;75.03;98807.13;4967993;28;2336;-87
2022/12/30 12:46:50;;;;;;;;;;;;;;;4.57;74.88;98797.25;4973062;28;1533;-85
2022/12/30 12:49:16;;;;;;;;;;;;;;;4.57;75.20;98799.13;4974712;28;1957;-85
2022/12/30 12:51:43;;;;;;;;;;;;;;;4.58;75.08;98795.41;4970188;28;1968;-85
2022/12/30 12:54:09;;;;;;;;;;;;;;;4.61;74.94;98785.09;4978163;28;2008;-85
2022/12/30 12:56:36;;;;;;;;;;;;;;;4.61;74.76;98787.75;4976731;28;2146;-86
2022/12/30 12:59:02;;;;;;;;;;;;;;;4.59;75.03;98791.69;4969649;28;2185;-86
2022/12/30 13:01:29;;;;;;;;;;;;;;;4.59;74.74;98792.53;4956005;28;1970;-84
2022/12/30 13:03:55;;;;;;;;;;;;;;;4.63;74.80;98788.38;4970447;28;2288;-83
2022/12/30 13:06:29;;;;;;;;;;;;;;;4.67;74.72;98794.88;4954684;28;2253;-86
2022/12/30 13:08:56;;;;;;;;;;;;;;;4.61;74.74;98798.44;4968309;28;2253;-85
2022/12/30 13:11:22;;;;;;;;;;;;;;;4.62;74.97;98796.56;4969310;28;2169;-85
2022/12/30 13:13:49;;;;;;;;;;;;;;;4.63;74.94;98796.38;4959559;28;1907;-85
2022/12/30 13:16:15;;;;;;;;;;;;;;;4.65;74.68;98793.50;4958652;29;2314;-86
2022/12/30 13:18:42;;;;;;;;;;;;;;;4.64;74.95;98802.50;4973568;28;2143;-86
2022/12/30 13:21:08;;;;;;;;;;;;;;;4.68;74.69;98790.38;4974847;28;2831;-86
2022/12/30 13:23:35;;;;;;;;;;;;;;;4.64;74.61;98792.66;4969598;28;2226;-86
2022/12/30 13:26:02;;;;;;;;;;;;;;;4.60;74.77;98785.34;4974091;28;2104;-87
2022/12/30 13:28:28;;;;;;;;;;;;;;;4.63;74.81;98784.88;4976110;28;1345;-85
2022/12/30 13:30:55;;;;;;;;;;;;;;;4.63;74.80;98785.69;4972497;28;2210;-85
2022/12/30 13:33:21;;;;;;;;;;;;;;;4.71;74.44;98771.25;4974473;28;2408;-85
2022/12/30 13:35:48;;;;;;;;;;;;;;;4.66;74.78;98777.25;4975177;28;2126;-84
2022/12/30 13:38:15;;;;;;;;;;;;;;;4.69;74.68;98766.13;4971107;28;2181;-85
2022/12/30 13:40:41;;;;;;;;;;;;;;;4.67;74.43;98778.88;4958346;28;1914;-85
2022/12/30 13:43:08;;;;;;;;;;;;;;;4.67;74.81;98781.53;4950459;28;2192;-88
2022/12/30 13:45:34;;;;;;;;;;;;;;;4.70;74.53;98783.75;4960472;28;2163;-84
2022/12/30 13:48:02;;;;;;;;;;;;;;;4.70;74.60;98773.09;4969230;28;2130;-84
2022/12/30 13:50:32;;;;;;;;;;;;;;;4.71;74.59;98766.72;4959202;28;2468;-85
2022/12/30 13:52:58;;;;;;;;;;;;;;;4.71;74.38;98777.41;4949014;28;2235;-83
2022/12/30 13:55:25;;;;;;;;;;;;;;;4.73;74.32;98774.50;4966321;28;2280;-84